Time;durP1;ratioP1;P1;durP2;ratioP2;P2;SDS_P1;SDS_P2;PMS_P1;PMS_P2;Temp;Humidity;BMP_temperature;BMP_pressure;BME280_temperature;BME280_humidity;BME280_pressure;Samples;Min_cycle;Max_cycle;Signal;HPM_P1;HPM_P2
2021/04/02 00:01:15;;;;;;;35.30;21.52;;;;;;;12.61;64.83;100193.25;5056161;27;96962;-75
2021/04/02 00:03:40;;;;;;;31.48;23.77;;;;;;;12.54;65.33;100195.31;5039928;27;96871;-73
2021/04/02 00:06:08;;;;;;;30.83;18.67;;;;;;;12.44;65.11;100202.75;5039731;27;101643;-73
2021/04/02 00:08:33;;;;;;;22.65;16.77;;;;;;;12.40;64.67;100206.44;5038840;27;101903;-73
2021/04/02 00:11:03;;;;;;;21.95;15.82;;;;;;;12.26;64.61;100203.56;5056916;27;96604;-73
2021/04/02 00:13:31;;;;;;;23.73;15.15;;;;;;;12.18;64.35;100203.03;5073224;27;97128;-73
2021/04/02 00:15:57;;;;;;;22.30;14.38;;;;;;;12.21;63.71;100203.75;5056486;27;100635;-73
2021/04/02 00:18:24;;;;;;;16.17;12.63;;;;;;;12.18;63.31;100203.88;5038986;27;102074;-73
2021/04/02 00:20:50;;;;;;;18.40;12.68;;;;;;;12.05;63.00;100215.00;5039900;27;97190;-73
2021/04/02 00:23:16;;;;;;;18.83;13.10;;;;;;;11.98;63.48;100212.63;5056239;27;97014;-74
2021/04/02 00:25:42;;;;;;;14.80;11.75;;;;;;;11.98;63.59;100209.13;5039007;27;101635;-73
2021/04/02 00:28:08;;;;;;;18.10;12.40;;;;;;;11.98;63.71;100217.88;5039722;27;101391;-73
2021/04/02 00:30:40;;;;;;;16.92;12.63;;;;;;;11.91;63.69;100207.66;5055882;27;96592;-73
2021/04/02 00:33:06;;;;;;;17.10;12.93;;;;;;;11.97;63.58;100208.25;5039417;27;96926;-74
2021/04/02 00:35:32;;;;;;;17.92;12.40;;;;;;;11.90;63.58;100205.97;5054458;27;100577;-73
2021/04/02 00:37:58;;;;;;;19.00;12.77;;;;;;;11.70;63.85;100204.97;5039254;27;101745;-73
2021/04/02 00:40:29;;;;;;;19.50;13.02;;;;;;;11.65;64.43;100208.69;5037980;27;96967;-73
2021/04/02 00:42:55;;;;;;;15.82;13.30;;;;;;;11.66;64.15;100206.00;5040169;27;97477;-73
2021/04/02 00:45:21;;;;;;;15.75;12.48;;;;;;;11.55;63.37;100210.84;5038359;27;101272;-73
2021/04/02 00:47:49;;;;;;;16.58;11.90;;;;;;;11.49;63.52;100211.94;5055999;27;101476;-73
2021/04/02 00:50:20;;;;;;;17.27;12.88;;;;;;;11.41;63.15;100213.16;5055720;27;97322;-73
2021/04/02 00:52:45;;;;;;;15.65;11.38;;;;;;;11.38;63.28;100211.50;5056353;27;96777;-73
2021/04/02 00:55:12;;;;;;;14.77;11.88;;;;;;;11.42;63.52;100217.50;5038944;27;99850;-73
2021/04/02 00:57:37;;;;;;;17.80;12.93;;;;;;;11.48;63.67;100220.72;5038144;27;100998;-73
2021/04/02 01:00:06;;;;;;;15.65;12.23;;;;;;;11.45;63.73;100222.63;5056133;27;96604;-73
2021/04/02 01:02:32;;;;;;;17.45;14.10;;;;;;;11.48;63.82;100220.72;5055418;27;97101;-73
2021/04/02 01:04:58;;;;;;;15.73;12.55;;;;;;;11.46;63.88;100219.94;5055713;27;101049;-73
2021/04/02 01:07:24;;;;;;;18.85;14.95;;;;;;;11.51;64.28;100222.38;5038337;27;101499;-73
2021/04/02 01:09:50;;;;;;;16.83;15.00;;;;;;;11.41;64.23;100226.31;5055607;27;96958;-72
2021/04/02 01:12:15;;;;;;;22.92;16.92;;;;;;;11.36;64.39;100226.47;5039004;27;97167;-72
2021/04/02 01:14:41;;;;;;;21.67;17.45;;;;;;;11.28;64.57;100228.53;5037315;27;100051;-73
2021/04/02 01:17:07;;;;;;;18.85;16.55;;;;;;;11.22;65.15;100229.63;5055490;27;101506;-72
2021/04/02 01:19:38;;;;;;;24.00;17.55;;;;;;;11.19;64.74;100237.63;5055189;27;97107;-73
2021/04/02 01:22:05;;;;;;;19.77;17.17;;;;;;;11.23;64.72;100236.59;5072889;27;96794;-73
2021/04/02 01:25:10;;;;;;;23.33;17.67;;;;;;;11.09;64.83;100238.91;5054883;27;101501;-73
2021/04/02 01:28:06;;;;;;;23.27;18.10;;;;;;;10.98;65.40;100241.91;5054172;27;100248;-73
2021/04/02 01:30:34;;;;;;;23.23;18.63;;;;;;;11.00;64.88;100241.88;5019098;27;97367;-73
2021/04/02 01:33:01;;;;;;;20.77;17.52;;;;;;;10.90;65.24;100237.84;5055829;27;97349;-73
2021/04/02 01:35:29;;;;;;;20.02;17.33;;;;;;;10.90;64.90;100243.97;5054369;27;101460;-73
2021/04/02 01:37:59;;;;;;;24.55;18.00;;;;;;;10.86;65.13;100242.38;5055450;27;101350;-72
2021/04/02 01:40:28;;;;;;;20.23;17.02;;;;;;;10.83;65.13;100251.22;5053981;27;96747;-73
2021/04/02 01:42:55;;;;;;;20.25;17.10;;;;;;;10.81;64.62;100249.53;5038665;27;97022;-73
2021/04/02 01:45:22;;;;;;;19.85;16.70;;;;;;;10.78;64.72;100255.75;5038890;27;101269;-74
2021/04/02 01:47:51;;;;;;;19.17;16.08;;;;;;;10.74;64.61;100253.31;5062287;27;101171;-73
2021/04/02 01:50:19;;;;;;;16.65;14.85;;;;;;;10.75;64.11;100249.78;5062389;27;97151;-72
2021/04/02 01:52:46;;;;;;;14.68;13.13;;;;;;;10.53;64.32;100254.91;5061399;27;96850;-72
2021/04/02 01:55:14;;;;;;;14.30;12.80;;;;;;;10.47;64.24;100256.00;5061766;27;101313;-72
2021/04/02 01:57:43;;;;;;;13.38;11.98;;;;;;;10.48;63.72;100246.38;5061197;27;97812;-73
2021/04/02 02:00:16;;;;;;;12.70;11.35;;;;;;;10.49;64.36;100263.81;5045919;27;97348;-72
2021/04/02 02:02:42;;;;;;;15.43;12.18;;;;;;;10.36;64.29;100263.38;5075481;27;97119;-72
2021/04/02 02:05:11;;;;;;;15.75;11.63;;;;;;;10.30;64.17;100274.94;5044699;27;102089;-72
2021/04/02 02:07:40;;;;;;;12.93;10.90;;;;;;;10.27;64.11;100274.16;5044328;27;100582;-73
2021/04/02 02:10:07;;;;;;;13.93;11.80;;;;;;;10.14;64.21;100279.78;5061920;27;96594;-72
2021/04/02 02:12:38;;;;;;;14.15;12.52;;;;;;;10.03;64.97;100286.28;5061597;27;96862;-73
2021/04/02 02:15:18;;;;;;;15.68;12.70;;;;;;;10.09;65.06;100281.69;5048591;27;101267;-73
2021/04/02 02:18:05;;;;;;;13.82;12.50;;;;;;;10.06;65.65;100286.19;5060732;27;101416;-72
2021/04/02 02:20:32;;;;;;;17.30;11.93;;;;;;;10.11;65.35;100287.75;5061246;27;97381;-73
2021/04/02 02:23:00;;;;;;;14.30;12.05;;;;;;;10.22;65.65;100289.19;5062491;27;97062;-73
2021/04/02 02:25:28;;;;;;;13.30;12.00;;;;;;;10.10;64.86;100291.31;5060905;27;101402;-73
2021/04/02 02:28:02;;;;;;;15.48;12.98;;;;;;;9.96;64.58;100296.13;5062644;27;101601;-73
2021/04/02 02:30:30;;;;;;;14.95;12.60;;;;;;;9.88;64.88;100301.59;5043751;27;96621;-73
2021/04/02 02:33:04;;;;;;;14.07;12.60;;;;;;;9.79;65.37;100295.81;5047221;27;97304;-73
2021/04/02 02:35:34;;;;;;;14.10;12.68;;;;;;;9.85;65.12;100306.09;5044930;27;99668;-73
2021/04/02 02:38:01;;;;;;;16.15;13.90;;;;;;;9.73;64.81;100312.59;5061793;27;98099;-73
2021/04/02 02:40:30;;;;;;;14.35;12.85;;;;;;;9.71;65.60;100307.38;5044091;27;96768;-73
2021/04/02 02:42:57;;;;;;;14.60;13.15;;;;;;;9.79;65.11;100311.53;5044800;27;96781;-73
2021/04/02 02:45:27;;;;;;;15.13;12.77;;;;;;;9.85;64.67;100308.72;5044784;27;100662;-74
2021/04/02 02:47:53;;;;;;;15.63;14.02;;;;;;;9.58;64.90;100323.53;5058894;27;102264;-74
2021/04/02 02:50:27;;;;;;;16.73;14.60;;;;;;;9.44;65.22;100324.78;5044796;27;96609;-74
2021/04/02 02:52:55;;;;;;;16.17;14.48;;;;;;;9.47;65.21;100318.59;5060759;27;96833;-74
2021/04/02 02:55:22;;;;;;;16.70;14.77;;;;;;;9.38;65.54;100322.34;5043799;27;101576;-74
2021/04/02 02:57:50;;;;;;;16.38;14.77;;;;;;;9.42;65.52;100321.34;5057712;27;100802;-74
2021/04/02 03:00:18;;;;;;;16.25;14.52;;;;;;;9.19;65.72;100323.78;5058031;27;96878;-74
2021/04/02 03:02:48;;;;;;;16.58;14.88;;;;;;;9.24;65.81;100327.13;5057294;27;96884;-74
2021/04/02 03:05:20;;;;;;;18.15;16.25;;;;;;;9.16;66.16;100324.75;5040675;27;100752;-74
2021/04/02 03:07:51;;;;;;;17.00;15.27;;;;;;;9.18;66.06;100324.69;5056800;27;99862;-74
2021/04/02 03:10:17;;;;;;;15.98;14.38;;;;;;;9.19;65.91;100322.03;5058007;27;97139;-74
2021/04/02 03:12:44;;;;;;;16.60;13.87;;;;;;;9.16;65.94;100324.75;5057481;27;97021;-74
2021/04/02 03:15:12;;;;;;;14.35;12.93;;;;;;;9.16;66.34;100323.84;5057487;27;101472;-74
2021/04/02 03:17:38;;;;;;;17.48;13.57;;;;;;;9.23;65.97;100330.66;5039777;27;101329;-74
2021/04/02 03:20:06;;;;;;;13.90;12.38;;;;;;;9.25;65.92;100340.19;5040406;27;97028;-74
2021/04/02 03:22:33;;;;;;;13.20;11.90;;;;;;;9.25;65.69;100337.56;5039851;27;96937;-75
2021/04/02 03:25:10;;;;;;;13.70;12.20;;;;;;;9.34;64.89;100336.44;5058433;27;101782;-74
2021/04/02 03:27:43;;;;;;;14.60;11.15;;;;;;;9.27;65.45;100343.59;5057362;27;101000;-74
2021/04/02 03:30:15;;;;;;;12.37;11.07;;;;;;;9.25;65.38;100342.81;5057966;27;96623;-74
2021/04/02 03:32:46;;;;;;;12.15;10.90;;;;;;;9.22;64.86;100348.13;5039728;27;96707;-74
2021/04/02 03:35:13;;;;;;;11.05;9.85;;;;;;;9.25;65.13;100347.16;5040304;27;101636;-74
2021/04/02 03:37:40;;;;;;;9.40;8.40;;;;;;;8.95;64.98;100338.41;5039233;27;101184;-74
2021/04/02 03:40:10;;;;;;;9.90;8.75;;;;;;;8.86;64.89;100344.75;5057200;27;97263;-74
2021/04/02 03:42:36;;;;;;;10.02;8.60;;;;;;;8.80;64.89;100345.75;5039761;27;97051;-74
2021/04/02 03:45:04;;;;;;;9.77;8.33;;;;;;;8.72;65.67;100344.25;5039746;27;101153;-74
2021/04/02 03:47:31;;;;;;;9.45;8.45;;;;;;;8.62;65.49;100346.25;5056534;27;101227;-76
2021/04/02 03:50:08;;;;;;;9.23;8.23;;;;;;;8.58;65.55;100357.69;5058916;27;96990;-74
2021/04/02 03:52:39;;;;;;;9.77;8.07;;;;;;;8.59;65.34;100351.56;5039635;27;96885;-75
2021/04/02 03:55:05;;;;;;;10.85;8.48;;;;;;;8.46;65.72;100358.84;5056741;27;101832;-74
2021/04/02 03:57:32;;;;;;;11.07;8.05;;;;;;;8.56;65.37;100354.25;5039652;27;99715;-76
2021/04/02 04:00:09;;;;;;;10.60;8.77;;;;;;;8.44;65.52;100362.41;5041503;27;97043;-74
2021/04/02 04:02:40;;;;;;;11.10;8.70;;;;;;;8.41;65.91;100363.34;5054619;27;96692;-74
2021/04/02 04:05:07;;;;;;;11.87;9.00;;;;;;;8.45;65.71;100362.38;5039872;27;101597;-74
2021/04/02 04:07:34;;;;;;;9.77;8.40;;;;;;;8.52;65.52;100363.06;5039154;27;100679;-76
2021/04/02 04:10:01;;;;;;;11.27;8.33;;;;;;;8.51;65.52;100362.22;5038597;27;97742;-74
2021/04/02 04:12:28;;;;;;;10.37;8.63;;;;;;;8.65;65.28;100363.63;5040240;27;97215;-74
2021/04/02 04:15:02;;;;;;;9.60;7.80;;;;;;;8.58;65.10;100365.53;5041559;27;101174;-74
2021/04/02 04:17:34;;;;;;;10.63;7.97;;;;;;;8.30;65.45;100366.19;5056870;27;101567;-76
2021/04/02 04:20:05;;;;;;;10.27;8.23;;;;;;;8.15;65.78;100366.56;5041302;27;96993;-74
2021/04/02 04:22:38;;;;;;;11.13;7.20;;;;;;;8.25;65.71;100369.81;5056770;27;96654;-75
2021/04/02 04:25:04;;;;;;;9.18;7.97;;;;;;;8.31;65.60;100370.50;5039246;27;101296;-75
2021/04/02 04:27:31;;;;;;;10.13;7.50;;;;;;;8.27;65.40;100376.72;5056421;27;97899;-75
2021/04/02 04:29:57;;;;;;;11.37;8.20;;;;;;;8.24;65.42;100379.41;5038850;27;96615;-74
2021/04/02 04:32:23;;;;;;;9.18;7.22;;;;;;;8.30;65.03;100381.03;5039554;27;96914;-74
2021/04/02 04:34:49;;;;;;;8.53;7.33;;;;;;;8.33;64.56;100373.97;5055159;27;98532;-74
2021/04/02 04:37:17;;;;;;;8.50;7.50;;;;;;;8.34;64.51;100387.88;5056009;27;101031;-74
2021/04/02 04:39:44;;;;;;;9.40;7.47;;;;;;;8.44;64.29;100385.97;5054907;27;97291;-75
2021/04/02 04:42:11;;;;;;;11.68;7.13;;;;;;;8.53;64.26;100385.75;5039365;27;97023;-74
2021/04/02 04:44:37;;;;;;;9.20;6.80;;;;;;;8.51;63.94;100388.38;5038362;27;101128;-77
2021/04/02 04:47:03;;;;;;;6.70;6.00;;;;;;;8.40;63.79;100387.78;5055934;27;100376;-74
2021/04/02 04:49:28;;;;;;;8.03;7.23;;;;;;;8.37;63.76;100383.44;5039361;27;97287;-74
2021/04/02 04:51:54;;;;;;;10.63;7.17;;;;;;;8.29;63.65;100395.88;5056033;27;97474;-74
2021/04/02 04:54:23;;;;;;;10.43;7.63;;;;;;;8.34;63.53;100393.13;5055769;27;101410;-74
2021/04/02 04:56:50;;;;;;;7.50;6.70;;;;;;;8.39;63.38;100394.75;5038088;27;99264;-74
2021/04/02 04:59:18;;;;;;;11.15;6.78;;;;;;;8.41;63.04;100399.97;5038702;27;96715;-74
2021/04/02 05:01:45;;;;;;;9.53;7.73;;;;;;;8.45;63.19;100398.13;5038367;27;96874;-74
2021/04/02 05:04:11;;;;;;;9.80;7.28;;;;;;;8.43;63.04;100406.00;5038790;27;101417;-74
2021/04/02 05:06:38;;;;;;;8.55;6.78;;;;;;;8.34;63.13;100411.44;5055179;27;100418;-74
2021/04/02 05:09:04;;;;;;;8.48;6.32;;;;;;;8.35;63.10;100413.16;5055680;27;96483;-73
2021/04/02 05:11:31;;;;;;;9.25;6.47;;;;;;;8.35;62.67;100415.78;5055846;27;96803;-73
2021/04/02 05:13:57;;;;;;;9.32;6.18;;;;;;;8.41;62.91;100410.44;5037932;27;100725;-74
2021/04/02 05:16:24;;;;;;;8.90;6.37;;;;;;;8.39;62.49;100412.22;5055902;27;101533;-73
2021/04/02 05:18:51;;;;;;;8.18;5.57;;;;;;;8.46;62.71;100413.78;5054820;27;97152;-73
2021/04/02 05:21:18;;;;;;;6.53;5.73;;;;;;;8.42;61.95;100419.16;5038602;27;97001;-73
2021/04/02 05:23:44;;;;;;;6.75;5.65;;;;;;;8.38;62.05;100420.94;5037210;27;101141;-73
2021/04/02 05:26:12;;;;;;;7.85;5.40;;;;;;;8.28;62.06;100422.88;5038334;27;100978;-73
2021/04/02 05:28:38;;;;;;;8.90;5.60;;;;;;;8.35;62.05;100429.72;5055683;27;96629;-75
2021/04/02 05:31:04;;;;;;;6.60;5.50;;;;;;;8.24;62.05;100442.19;5038319;27;96950;-73
2021/04/02 05:33:30;;;;;;;7.22;5.85;;;;;;;8.27;61.54;100434.25;5038451;27;100847;-73
2021/04/02 05:35:55;;;;;;;8.57;5.50;;;;;;;8.34;61.86;100437.59;5037475;27;101250;-73
2021/04/02 05:38:21;;;;;;;8.23;5.57;;;;;;;8.42;61.77;100438.31;5055785;27;96719;-73
2021/04/02 05:40:46;;;;;;;6.17;5.10;;;;;;;8.43;61.42;100439.16;5054746;27;96925;-73
2021/04/02 05:43:15;;;;;;;6.53;5.10;;;;;;;8.31;60.98;100442.88;5038264;27;101029;-73
2021/04/02 05:45:41;;;;;;;5.68;5.13;;;;;;;8.29;61.15;100442.94;5037700;27;101244;-75
2021/04/02 05:48:08;;;;;;;5.57;4.68;;;;;;;8.24;60.82;100452.63;5037868;27;96645;-73
2021/04/02 05:50:35;;;;;;;6.65;4.57;;;;;;;8.17;60.94;100448.41;5038478;27;97033;-73
2021/04/02 05:53:08;;;;;;;5.20;4.70;;;;;;;8.13;60.92;100446.78;5037344;27;100784;-73
2021/04/02 05:55:39;;;;;;;6.40;4.60;;;;;;;8.10;61.16;100454.69;5038085;27;101201;-72
2021/04/02 05:58:06;;;;;;;5.80;4.53;;;;;;;8.23;61.12;100453.53;5055181;27;96579;-73
2021/04/02 06:00:32;;;;;;;7.73;4.60;;;;;;;8.25;60.70;100458.72;5038343;27;96568;-73
2021/04/02 06:02:58;;;;;;;4.67;4.17;;;;;;;8.27;60.26;100454.31;5037297;27;101594;-73
2021/04/02 06:05:24;;;;;;;7.93;4.22;;;;;;;8.26;60.26;100453.47;5038312;27;100889;-73
2021/04/02 06:07:52;;;;;;;6.50;4.07;;;;;;;8.33;60.02;100465.50;5036888;27;97047;-73
2021/04/02 06:10:18;;;;;;;8.07;4.43;;;;;;;8.31;60.23;100459.44;5038151;27;96947;-73
2021/04/02 06:12:43;;;;;;;7.30;5.32;;;;;;;8.33;60.27;100457.66;5036718;27;101174;-75
2021/04/02 06:15:11;;;;;;;8.63;4.73;;;;;;;8.34;59.91;100455.91;5054397;27;101976;-73
2021/04/02 06:18:05;;;;;;;4.97;4.30;;;;;;;8.35;59.92;100455.88;5055259;27;97077;-73
2021/04/02 06:20:48;;;;;;;5.70;4.50;;;;;;;8.28;59.76;100458.66;5055080;27;96912;-73
2021/04/02 06:23:17;;;;;;;6.33;5.00;;;;;;;8.23;59.56;100463.13;5037802;27;101091;-73
2021/04/02 06:25:50;;;;;;;7.15;5.28;;;;;;;8.21;59.47;100472.78;5054312;27;101557;-75
2021/04/02 06:28:24;;;;;;;6.35;5.63;;;;;;;8.18;59.56;100473.69;5054919;27;96661;-73
2021/04/02 06:30:56;;;;;;;7.65;4.80;;;;;;;8.18;59.21;100470.22;5054833;27;96553;-73
2021/04/02 06:33:29;;;;;;;6.57;4.20;;;;;;;8.06;59.12;100482.66;5074855;27;98042;-72
2021/04/02 06:35:55;;;;;;;6.80;4.33;;;;;;;8.01;59.02;100478.44;5040581;27;100847;-75
2021/04/02 06:38:20;;;;;;;7.23;4.80;;;;;;;8.01;59.13;100476.66;5041020;27;97262;-75
2021/04/02 06:40:47;;;;;;;4.80;4.28;;;;;;;7.98;58.64;100475.88;5050740;27;96748;-76
2021/04/02 06:43:12;;;;;;;5.22;4.35;;;;;;;7.82;58.72;100472.69;5037575;27;101816;-75
2021/04/02 06:45:39;;;;;;;4.40;3.83;;;;;;;7.61;59.04;100477.47;5020957;27;101610;-75
2021/04/02 06:48:12;;;;;;;10.77;3.97;;;;;;;7.58;59.66;100493.19;5037381;27;96638;-75
2021/04/02 06:50:38;;;;;;;6.13;3.73;;;;;;;7.71;59.75;100494.69;5021243;27;97416;-75
2021/04/02 06:53:04;;;;;;;6.70;4.10;;;;;;;7.83;59.32;100487.50;5019962;27;100758;-75
2021/04/02 06:55:31;;;;;;;10.53;4.53;;;;;;;7.88;58.62;100488.25;5020975;27;101219;-75
2021/04/02 06:58:02;;;;;;;6.63;4.50;;;;;;;7.93;58.60;100495.09;5019539;27;96978;-74
2021/04/02 07:00:28;;;;;;;5.53;4.00;;;;;;;7.98;58.02;100495.03;5020922;27;97197;-74
2021/04/02 07:02:54;;;;;;;5.23;4.00;;;;;;;8.12;58.04;100500.84;5036331;27;97576;-74
2021/04/02 07:05:25;;;;;;;6.93;4.50;;;;;;;8.29;58.07;100504.81;5020452;27;101552;-73
2021/04/02 07:07:59;;;;;;;7.80;4.47;;;;;;;8.28;58.31;100503.13;5037242;27;96555;-74
2021/04/02 07:10:26;;;;;;;12.23;4.00;;;;;;;8.29;57.99;100503.09;5054850;27;97126;-74
2021/04/02 07:12:52;;;;;;;5.80;4.97;;;;;;;8.33;57.84;100502.13;5019377;27;101728;-74
2021/04/02 07:15:19;;;;;;;6.30;4.32;;;;;;;8.39;57.69;100498.53;5037375;27;97442;-74
2021/04/02 07:17:48;;;;;;;8.30;5.00;;;;;;;8.47;57.89;100501.00;5037353;27;96675;-74
2021/04/02 07:20:14;;;;;;;6.53;4.88;;;;;;;8.46;57.39;100507.97;5017244;27;99807;-74
2021/04/02 07:22:41;;;;;;;11.00;5.97;;;;;;;8.43;57.81;100504.56;5020157;27;100847;-74
2021/04/02 07:25:08;;;;;;;8.70;5.38;;;;;;;8.54;57.94;100502.56;5035976;27;99889;-74
2021/04/02 07:27:34;;;;;;;7.75;5.60;;;;;;;8.46;57.38;100501.88;5019928;27;96608;-74
2021/04/02 07:30:02;;;;;;;5.82;4.55;;;;;;;8.44;57.65;100514.16;5019555;27;96856;-74
2021/04/02 07:32:30;;;;;;;9.18;4.72;;;;;;;8.42;57.52;100511.56;5036808;27;101152;-74
2021/04/02 07:34:55;;;;;;;6.70;4.43;;;;;;;8.54;57.46;100507.81;5019251;27;101205;-74
2021/04/02 07:37:21;;;;;;;8.70;5.05;;;;;;;8.50;57.77;100514.00;5020311;27;96675;-74
2021/04/02 07:39:48;;;;;;;12.55;4.82;;;;;;;8.50;56.72;100514.88;5040102;27;97637;-75
2021/04/02 07:42:14;;;;;;;8.85;4.68;;;;;;;8.54;56.83;100519.13;5056654;27;100995;-74
2021/04/02 07:44:44;;;;;;;16.38;5.38;;;;;;;8.43;56.72;100515.03;5040064;27;101094;-74
2021/04/02 07:47:12;;;;;;;8.40;4.38;;;;;;;8.39;57.41;100515.09;5056386;27;96647;-74
2021/04/02 07:49:54;;;;;;;6.05;4.65;;;;;;;8.56;56.90;100516.50;5039862;27;97078;-74
2021/04/02 07:52:52;;;;;;;8.18;4.43;;;;;;;8.50;56.16;100524.47;5039595;27;100931;-74
2021/04/02 07:55:19;;;;;;;10.48;4.90;;;;;;;8.65;55.77;100521.50;4995485;27;101198;-73
2021/04/02 07:58:06;;;;;;;7.05;3.92;;;;;;;8.80;55.52;100522.91;5057135;27;96929;-74
2021/04/02 08:00:33;;;;;;;10.88;5.63;;;;;;;8.74;55.22;100526.53;5057484;27;97298;-74
2021/04/02 08:03:16;;;;;;;10.95;4.82;;;;;;;8.71;55.72;100530.97;5038912;27;100833;-74
2021/04/02 08:06:10;;;;;;;5.17;4.13;;;;;;;8.78;55.25;100536.00;5056870;27;97965;-73
2021/04/02 08:08:44;;;;;;;9.32;4.85;;;;;;;8.88;54.92;100541.06;5032015;27;97118;-73
2021/04/02 08:11:14;;;;;;;10.13;4.80;;;;;;;8.73;54.38;100532.66;5073836;27;97254;-73
2021/04/02 08:13:53;;;;;;;7.50;4.63;;;;;;;8.86;54.83;100535.84;5056610;27;97568;-73
2021/04/02 08:16:31;;;;;;;7.32;5.20;;;;;;;9.06;54.64;100528.38;5056538;27;101896;-74
2021/04/02 08:19:19;;;;;;;6.35;4.88;;;;;;;9.19;54.25;100533.31;5072531;27;96644;-73
2021/04/02 08:22:00;;;;;;;8.48;4.63;;;;;;;9.20;53.53;100533.28;5056237;27;97041;-73
2021/04/02 08:24:31;;;;;;;8.50;5.20;;;;;;;9.37;52.91;100525.00;5056434;27;101009;-73
2021/04/02 08:26:57;;;;;;;9.23;6.18;;;;;;;9.34;52.24;100534.66;5038776;27;101051;-73
2021/04/02 08:29:24;;;;;;;7.47;5.90;;;;;;;9.39;52.69;100524.94;5073909;27;97073;-73
2021/04/02 08:31:53;;;;;;;6.68;4.80;;;;;;;9.56;52.54;100535.00;5056874;27;97138;-73
2021/04/02 08:34:23;;;;;;;4.75;4.25;;;;;;;9.59;51.98;100530.53;5038972;27;101746;-73
2021/04/02 08:36:54;;;;;;;10.35;6.53;;;;;;;9.70;52.22;100523.22;5056666;27;98263;-73
2021/04/02 08:39:23;;;;;;;14.20;8.27;;;;;;;9.81;52.07;100528.19;5055142;27;96994;-73
2021/04/02 08:42:02;;;;;;;12.07;6.82;;;;;;;9.87;52.05;100525.41;5057178;27;97030;-73
2021/04/02 08:44:34;;;;;;;10.20;7.38;;;;;;;10.08;51.90;100517.81;5056332;27;98461;-73
2021/04/02 08:47:03;;;;;;;9.93;7.40;;;;;;;10.17;52.22;100520.16;5072688;27;97873;-74
2021/04/02 08:49:47;;;;;;;8.75;6.28;;;;;;;10.43;50.53;100504.53;5039338;27;97323;-73
2021/04/02 08:52:14;;;;;;;5.85;5.15;;;;;;;10.36;50.74;100510.91;5055396;27;97275;-73
2021/04/02 08:54:42;;;;;;;18.25;8.95;;;;;;;10.38;50.39;100508.22;5055581;27;101342;-73
2021/04/02 08:57:12;;;;;;;13.05;9.85;;;;;;;10.38;51.32;100505.59;5037401;27;101243;-74
2021/04/02 08:59:40;;;;;;;17.33;8.73;;;;;;;10.56;51.91;100502.41;5039192;27;96599;-73
2021/04/02 09:02:06;;;;;;;7.63;6.07;;;;;;;10.67;49.83;100502.06;5038709;27;96918;-74
2021/04/02 09:04:32;;;;;;;8.30;5.28;;;;;;;10.55;51.18;100500.69;5038852;27;101242;-74
2021/04/02 09:06:58;;;;;;;14.15;5.90;;;;;;;10.85;50.20;100495.38;5037857;27;100653;-74
2021/04/02 09:09:29;;;;;;;8.70;5.65;;;;;;;11.36;50.21;100497.16;5055349;27;97059;-74
2021/04/02 09:11:55;;;;;;;12.27;5.88;;;;;;;11.48;49.61;100502.00;5038701;27;97122;-76
2021/04/02 09:14:22;;;;;;;6.82;4.90;;;;;;;11.58;48.74;100494.66;5038185;27;101667;-74
2021/04/02 09:16:48;;;;;;;9.05;5.00;;;;;;;11.37;48.82;100496.25;5038536;27;101360;-73
2021/04/02 09:19:16;;;;;;;8.25;4.85;;;;;;;11.35;48.56;100497.25;5038205;27;96589;-73
2021/04/02 09:21:42;;;;;;;9.27;5.65;;;;;;;11.55;48.96;100493.00;5055706;27;96850;-73
2021/04/02 09:24:08;;;;;;;15.68;5.18;;;;;;;11.75;47.50;100488.78;5037647;27;100851;-74
2021/04/02 09:26:36;;;;;;;12.00;5.05;;;;;;;11.65;48.10;100496.16;5055962;27;98493;-73
2021/04/02 09:29:02;;;;;;;9.13;5.30;;;;;;;12.03;46.85;100482.56;5054115;27;96785;-74
2021/04/02 09:31:31;;;;;;;6.65;5.13;;;;;;;12.14;46.20;100493.53;5055641;27;96840;-73
2021/04/02 09:33:59;;;;;;;10.10;5.07;;;;;;;12.30;46.98;100492.00;5054732;27;98038;-76
2021/04/02 09:36:27;;;;;;;5.55;4.72;;;;;;;12.23;46.04;100486.13;5038203;27;101585;-73
2021/04/02 09:39:05;;;;;;;10.07;4.97;;;;;;;12.22;45.58;100488.84;5056072;27;97071;-74
2021/04/02 09:41:31;;;;;;;7.55;5.25;;;;;;;12.09;45.37;100479.69;5058675;27;97289;-73
2021/04/02 09:44:05;;;;;;;7.88;5.25;;;;;;;12.17;45.73;100481.09;5057959;27;101110;-75
2021/04/02 09:46:33;;;;;;;6.22;5.28;;;;;;;12.08;45.37;100480.63;5058783;27;97336;-74
2021/04/02 09:49:07;;;;;;;5.35;4.85;;;;;;;12.47;45.43;100486.09;5040825;27;96578;-76
2021/04/02 09:51:36;;;;;;;7.30;4.70;;;;;;;12.37;44.10;100480.34;5042065;27;96954;-73
2021/04/02 09:54:02;;;;;;;6.35;4.63;;;;;;;12.71;43.97;100476.34;5057212;27;101689;-73
2021/04/02 09:56:28;;;;;;;8.45;5.70;;;;;;;13.39;44.68;100486.78;5075470;27;97905;-72
2021/04/02 09:58:53;;;;;;;8.77;6.00;;;;;;;13.71;44.38;100472.19;5041156;27;97103;-72
2021/04/02 10:01:19;;;;;;;8.18;6.18;;;;;;;13.73;43.63;100473.84;5075141;27;97527;-72
2021/04/02 10:03:45;;;;;;;8.40;5.88;;;;;;;13.49;44.72;100469.63;5057936;27;101417;-73
2021/04/02 10:06:11;;;;;;;11.27;5.90;;;;;;;13.45;44.52;100466.28;5074478;27;97902;-72
2021/04/02 10:08:37;;;;;;;7.68;6.40;;;;;;;13.33;45.14;100467.66;5045303;27;97463;-75
2021/04/02 10:11:02;;;;;;;9.25;7.05;;;;;;;13.10;44.65;100463.34;5061822;27;96777;-73
2021/04/02 10:13:28;;;;;;;7.30;5.85;;;;;;;13.32;44.60;100463.31;5061704;27;99518;-72
2021/04/02 10:15:53;;;;;;;8.02;7.20;;;;;;;13.58;44.06;100454.28;5079327;27;98381;-72
2021/04/02 10:18:20;;;;;;;7.20;5.50;;;;;;;13.47;43.02;100461.78;5043689;27;96693;-73
2021/04/02 10:20:46;;;;;;;6.93;5.60;;;;;;;13.45;43.24;100450.44;5045027;27;96841;-74
2021/04/02 10:23:11;;;;;;;7.72;5.22;;;;;;;13.42;43.48;100453.22;5060283;27;98026;-75
2021/04/02 10:25:37;;;;;;;8.68;6.00;;;;;;;13.61;43.98;100450.63;5078825;27;98175;-75
2021/04/02 10:28:03;;;;;;;6.60;5.88;;;;;;;13.40;44.22;100456.84;5078733;27;96513;-76
2021/04/02 10:30:28;;;;;;;9.27;5.45;;;;;;;13.26;44.34;100452.16;5061755;27;96888;-75
2021/04/02 10:32:54;;;;;;;7.75;6.63;;;;;;;13.67;43.98;100449.50;5061285;27;101048;-74
2021/04/02 10:35:20;;;;;;;8.20;5.38;;;;;;;13.53;43.35;100455.41;5060652;27;100849;-75
2021/04/02 10:37:46;;;;;;;8.25;6.30;;;;;;;13.50;43.05;100451.13;5044720;27;96549;-74
2021/04/02 10:40:13;;;;;;;7.57;6.07;;;;;;;13.54;43.76;100450.03;5060749;27;96933;-75
2021/04/02 10:42:38;;;;;;;7.57;5.32;;;;;;;13.80;42.86;100445.38;5044381;27;101209;-74
2021/04/02 10:45:05;;;;;;;8.13;6.00;;;;;;;13.94;42.99;100450.03;5043829;27;101528;-75
2021/04/02 10:47:30;;;;;;;5.93;5.32;;;;;;;13.80;42.30;100434.84;5061170;27;96608;-75
2021/04/02 10:49:56;;;;;;;12.48;5.25;;;;;;;13.71;42.49;100448.44;5044534;27;97159;-72
2021/04/02 10:52:22;;;;;;;8.68;5.15;;;;;;;13.20;42.87;100444.50;5060164;27;101324;-72
2021/04/02 10:54:47;;;;;;;6.07;5.25;;;;;;;12.91;43.71;100447.44;5044163;27;99647;-72
2021/04/02 10:57:15;;;;;;;9.02;5.28;;;;;;;12.85;44.24;100439.78;5043506;27;97292;-72
2021/04/02 10:59:41;;;;;;;5.50;4.75;;;;;;;13.04;44.37;100441.66;5044612;27;97406;-72
2021/04/02 11:02:07;;;;;;;7.38;6.13;;;;;;;12.84;44.90;100435.44;5043190;27;101371;-73
2021/04/02 11:04:32;;;;;;;7.15;5.28;;;;;;;12.98;45.36;100436.66;5061068;27;101340;-74
2021/04/02 11:06:58;;;;;;;8.88;5.93;;;;;;;12.76;45.10;100434.03;5044360;27;97215;-75
2021/04/02 11:09:23;;;;;;;6.00;5.40;;;;;;;12.73;45.34;100427.13;5042919;27;97431;-74
2021/04/02 11:11:49;;;;;;;8.13;5.93;;;;;;;12.54;44.46;100426.19;5060131;27;101721;-74
2021/04/02 11:14:15;;;;;;;7.88;5.30;;;;;;;12.48;45.11;100429.03;5042848;27;101435;-75
2021/04/02 11:16:41;;;;;;;8.30;5.40;;;;;;;12.56;44.52;100416.41;5061028;27;97258;-75
2021/04/02 11:19:06;;;;;;;6.15;5.55;;;;;;;12.56;43.31;100419.91;5059764;27;97201;-76
2021/04/02 11:21:32;;;;;;;11.13;6.80;;;;;;;12.44;44.93;100418.63;5043511;27;102344;-74
2021/04/02 11:23:58;;;;;;;8.30;5.70;;;;;;;12.52;44.55;100415.69;5043621;27;101714;-75
2021/04/02 11:26:24;;;;;;;9.23;6.03;;;;;;;12.26;44.01;100408.84;5043126;27;96566;-74